Austin/Bergstrom AFB, Texas
Current Conditions -  °F | °C
As of 6:53 AM on Thursday 30 Oct 2014 (Local Time) from KAUS Reporting Station
Few Clouds Few Clouds  
Wind Chill: 58°   Ceiling: Unl
Heat Index: 58°   Visibility: 10mi
Dew Point: 58°   Wind: 5mph
Humidity: 100%   Direction: 30°NNE
Pressure: 30.12"   Gusts: NA
Location:  30.2°N, 97.68°W
Report Text: KAUS 301153Z 03004KT 10SM FEW020 FEW080 14/14 A3012 RMK AO2 SLP195 T01440144 10178 20139 53003
Loading
Personal Weather Stations






























Interactive Weather Map New forecast layout! Learn more

10-Day Weather Forecast

Advertisements
Track Severe Weather on mobile